Terminal Aerodrome Forecast
Issued by NWS

Home | Current Version | Previous Version | Graphics & Text | Print | Product List | Glossary On
Versions: 1 2 3 4 5 6 7 8 9 10 11 12 13 14 15 16 17 18 19 20 21 22 23 24 25 26 27 28 29
000
FTUS43 KTOP 261742
TAFFOE
TAF
KFOE 261742Z 2618/2718 11015G24KT P6SM SCT030
     FM262100 13015G22KT P6SM VCTS BKN035CB
      TEMPO 2702/2706 2SM TSRA BR BKN025CB
     FM271100 16011KT P6SM BKN040=

USA.gov is the U.S. government's official web portal to all federal, state and local government web resources and services.